Time;durP1;ratioP1;P1;durP2;ratioP2;P2;SDS_P1;SDS_P2;PMS_P1;PMS_P2;Temp;Humidity;BMP_temperature;BMP_pressure;BME280_temperature;BME280_humidity;BME280_pressure;Samples;Min_cycle;Max_cycle;Signal;HPM_P1;HPM_P2
2022/07/29 00:01:58;;;;;;;2.88;2.25;;;23.90;61.20;;;22.75;48.72;100093.53;10416834;27;96837;-86
2022/07/29 00:07:01;;;;;;;3.15;2.33;;;23.90;61.20;;;22.67;49.26;100097.50;10416709;27;98360;-85
2022/07/29 00:12:05;;;;;;;5.05;2.17;;;23.80;61.40;;;22.63;49.43;100096.34;10425308;27;98094;-84
2022/07/29 00:17:11;;;;;;;2.78;2.10;;;23.80;61.60;;;22.53;49.34;100096.19;10432098;27;98283;-84
2022/07/29 00:22:20;;;;;;;2.80;2.17;;;23.70;61.90;;;22.44;49.79;100095.81;10421179;27;96635;-84
2022/07/29 00:27:23;;;;;;;4.55;2.40;;;23.60;62.10;;;22.38;50.16;100093.28;10421099;27;98291;-84
2022/07/29 00:32:27;;;;;;;3.33;2.20;;;23.50;62.50;;;22.33;50.50;100102.13;10403336;27;97698;-84
2022/07/29 00:37:30;;;;;;;3.13;2.15;;;23.50;62.80;;;22.29;50.47;100100.16;10429707;27;96750;-84
2022/07/29 00:42:49;;;;;;;3.63;2.25;;;23.40;63.50;;;22.20;50.81;100091.66;10417322;27;98272;-85
2022/07/29 00:47:52;;;;;;;3.47;2.20;;;23.40;63.20;;;22.15;50.94;100095.09;10419150;27;96678;-84
2022/07/29 00:52:55;;;;;;;2.33;2.03;;;23.30;63.30;;;22.10;51.13;100091.47;10432075;27;98217;-84
2022/07/29 00:57:59;;;;;;;2.42;2.17;;;23.30;63.50;;;22.05;51.17;100092.16;10414710;27;98460;-84
2022/07/29 01:03:02;;;;;;;3.20;2.40;;;23.20;63.70;;;22.03;51.57;100091.59;10406636;27;97418;-84
2022/07/29 01:08:07;;;;;;;2.70;2.22;;;23.20;63.80;;;22.00;51.46;100092.09;10421703;27;96744;-85
2022/07/29 01:13:11;;;;;;;4.00;2.20;;;23.20;64.00;;;21.97;51.74;100089.06;10423924;27;96766;-85
2022/07/29 01:18:33;;;;;;;4.47;2.20;;;23.10;64.10;;;21.91;51.63;100077.34;10405096;27;96838;-85
2022/07/29 01:24:27;;;;;;;2.80;2.30;;;23.00;64.20;;;21.87;51.73;100089.69;10409537;27;96942;-85
2022/07/29 01:29:41;;;;;;;3.80;2.20;;;23.00;64.30;;;21.80;52.33;100089.03;10402408;27;97455;-84
2022/07/29 01:35:01;;;;;;;2.83;2.40;;;23.00;64.50;;;21.73;52.51;100074.88;10392570;27;98424;-85
2022/07/29 01:40:10;;;;;;;2.72;2.20;;;22.90;64.70;;;21.65;52.61;100078.75;10432023;27;97323;-85
2022/07/29 01:46:00;;;;;;;3.27;2.03;;;22.80;64.90;;;21.56;52.64;100074.84;10411210;27;98336;-85
2022/07/29 01:51:27;;;;;;;2.90;2.20;;;22.70;64.90;;;21.51;52.49;100074.75;10348633;27;98307;-85
2022/07/29 01:56:33;;;;;;;4.47;2.40;;;22.60;65.00;;;21.47;52.68;100076.28;10455937;27;97385;-85
2022/07/29 02:01:39;;;;;;;2.95;2.40;;;22.60;65.00;;;21.42;52.65;100073.50;10421744;27;98942;-85
2022/07/29 02:06:44;;;;;;;5.93;2.58;;;22.60;65.20;;;21.36;53.04;100072.59;10420469;27;96946;-85
2022/07/29 02:11:53;;;;;;;2.83;2.22;;;22.50;65.40;;;21.31;53.08;100073.31;10430918;27;96729;-83
2022/07/29 02:16:58;;;;;;;3.25;2.20;;;22.50;65.50;;;21.28;53.33;100075.63;10425107;27;97709;-84
2022/07/29 02:22:01;;;;;;;2.88;2.22;;;22.50;65.70;;;21.23;53.43;100062.00;10435920;27;96640;-84
2022/07/29 02:27:04;;;;;;;2.88;2.40;;;22.50;65.70;;;21.19;53.54;100058.16;10418547;27;96612;-84
2022/07/29 02:32:10;;;;;;;3.58;2.30;;;22.40;66.00;;;21.16;53.50;100053.22;10435790;27;98156;-84
2022/07/29 02:37:16;;;;;;;3.78;2.60;;;22.30;66.00;;;21.11;53.44;100062.03;10435840;27;96832;-84
2022/07/29 02:42:23;;;;;;;5.20;2.38;;;22.30;66.00;;;21.07;53.92;100053.63;10443022;27;96674;-84
2022/07/29 02:47:39;;;;;;;2.92;2.58;;;22.30;66.20;;;21.04;53.94;100062.19;10431765;27;96751;-84
2022/07/29 02:53:11;;;;;;;5.68;2.58;;;22.30;66.60;;;20.99;54.37;100056.72;10427127;27;96726;-84
2022/07/29 02:58:37;;;;;;;4.28;2.20;;;22.20;66.80;;;20.92;54.65;100052.47;10441379;27;98409;-84
2022/07/29 03:03:44;;;;;;;3.92;2.67;;;22.10;66.90;;;20.81;54.38;100054.16;10411586;27;96721;-84
2022/07/29 03:08:49;;;;;;;5.35;2.42;;;22.10;67.10;;;20.75;54.92;100060.50;10408145;27;98576;-85
2022/07/29 03:13:52;;;;;;;4.55;2.90;;;22.00;67.30;;;20.65;55.21;100069.22;10433139;27;97453;-84
2022/07/29 03:18:56;;;;;;;8.93;4.88;;;21.90;67.80;;;20.56;55.89;100068.75;10422169;27;96942;-84
2022/07/29 03:23:58;;;;;;;3.47;2.92;;;21.90;68.10;;;20.48;56.09;100069.13;10421017;27;97480;-84
2022/07/29 03:29:01;;;;;;;4.97;2.80;;;21.80;68.40;;;20.38;56.38;100068.84;10412000;27;96599;-83
2022/07/29 03:34:04;;;;;;;3.35;2.50;;;21.60;68.60;;;20.27;56.66;100073.22;10413822;27;96645;-83
2022/07/29 03:39:10;;;;;;;3.70;2.90;;;21.50;69.00;;;20.19;56.93;100070.03;10444855;27;96927;-84
2022/07/29 03:44:15;;;;;;;4.28;2.45;;;21.40;69.20;;;20.13;57.43;100065.56;10418704;27;96748;-83
2022/07/29 03:49:21;;;;;;;4.95;2.55;;;21.40;69.60;;;20.09;57.87;100072.47;10417799;27;97299;-84
2022/07/29 03:54:24;;;;;;;4.05;3.30;;;21.40;70.00;;;20.12;58.15;100069.31;10441746;27;96553;-84
2022/07/29 03:59:30;;;;;;;4.38;3.25;;;21.40;70.40;;;20.16;59.13;100071.31;10421688;27;97623;-84
2022/07/29 04:04:35;;;;;;;6.75;3.30;;;21.40;70.60;;;20.22;58.98;100077.66;10416199;27;98577;-85
2022/07/29 04:09:38;;;;;;;4.55;3.30;;;21.50;70.90;;;20.29;59.09;100081.06;10450495;27;96788;-82
2022/07/29 04:14:40;;;;;;;4.15;3.10;;;21.50;71.00;;;20.34;59.30;100083.88;10402088;27;97470;-81
2022/07/29 04:19:46;;;;;;;3.70;3.10;;;21.60;71.50;;;20.40;59.63;100091.03;10430602;27;97277;-81
2022/07/29 04:24:49;;;;;;;6.55;3.22;;;21.60;72.20;;;20.42;59.53;100075.44;10425877;27;96679;-81
2022/07/29 04:29:52;;;;;;;6.28;3.45;;;21.70;72.20;;;20.51;59.47;100087.56;10425244;27;98791;-81
2022/07/29 04:34:59;;;;;;;4.85;3.22;;;21.70;72.00;;;20.59;59.60;100080.97;10417142;27;98510;-81
2022/07/29 04:40:03;;;;;;;5.40;3.10;;;21.80;72.20;;;20.69;59.72;100081.19;10424719;27;98244;-81
2022/07/29 04:45:06;;;;;;;5.13;3.40;;;21.90;72.30;;;20.82;59.85;100077.41;10425425;27;96805;-81
2022/07/29 04:50:10;;;;;;;5.35;3.47;;;22.00;72.40;;;20.91;59.32;100083.25;10433782;27;96761;-81
2022/07/29 04:55:13;;;;;;;5.78;3.40;;;22.10;72.20;;;21.01;59.22;100084.28;10429096;27;100267;-82
2022/07/29 05:00:16;;;;;;;4.90;2.90;;;22.20;72.30;;;21.11;58.98;100081.81;10407216;27;96816;-82
2022/07/29 05:05:19;;;;;;;4.80;3.33;;;22.20;72.10;;;21.17;58.89;100081.88;10446011;27;96902;-82
2022/07/29 05:10:22;;;;;;;3.40;3.10;;;22.30;72.00;;;21.25;59.00;100079.63;10442286;27;96667;-81
2022/07/29 05:15:25;;;;;;;7.18;3.83;;;22.40;72.00;;;21.35;58.77;100073.63;10441462;27;97530;-82
2022/07/29 05:20:30;;;;;;;6.15;3.00;;;22.50;72.10;;;21.48;58.72;100081.47;10412440;27;98259;-81
2022/07/29 05:25:33;;;;;;;3.65;3.10;;;22.60;72.00;;;21.63;58.96;100083.59;10417015;27;98443;-87
2022/07/29 05:30:46;;;;;;;3.63;2.90;;;22.80;72.00;;;21.80;58.49;100091.75;10434286;27;96663;-87
2022/07/29 05:35:49;;;;;;;5.32;2.90;;;22.90;71.70;;;21.97;58.07;100084.47;10429322;27;96964;-87
2022/07/29 05:40:52;;;;;;;6.10;3.28;;;23.10;71.70;;;22.18;57.78;100089.16;10402501;27;96663;-87
2022/07/29 05:45:56;;;;;;;6.72;3.03;;;23.30;71.10;;;22.40;57.11;100085.72;10421540;27;96905;-86
2022/07/29 05:50:59;;;;;;;3.40;2.83;;;23.50;70.60;;;22.63;56.60;100085.50;10428628;27;96580;-87
2022/07/29 05:56:05;;;;;;;3.85;2.90;;;23.80;70.10;;;22.87;55.64;100082.59;10425225;27;96797;-87
2022/07/29 06:01:08;;;;;;;3.90;3.40;;;24.00;69.50;;;23.09;55.30;100078.00;10455791;27;98683;-87
2022/07/29 06:06:11;;;;;;;4.28;2.88;;;24.20;69.00;;;23.33;54.24;100085.84;10440926;27;96643;-87
2022/07/29 06:11:13;;;;;;;4.60;2.90;;;24.40;68.10;;;23.59;53.57;100086.94;10414112;27;96617;-89
2022/07/29 06:16:16;;;;;;;6.70;3.22;;;24.70;67.70;;;23.85;51.60;100086.13;10396699;27;97549;-87
2022/07/29 06:21:32;;;;;;;7.75;3.80;;;25.00;66.50;;;24.14;51.04;100085.81;10396628;27;97769;-87
2022/07/29 06:26:34;;;;;;;7.95;3.35;;;25.20;65.80;;;24.40;50.28;100079.50;10433178;27;96628;-88
2022/07/29 06:31:41;;;;;;;13.13;4.05;;;25.50;65.10;;;24.65;49.26;100092.44;10424143;27;98697;-87
2022/07/29 06:36:44;;;;;;;7.93;3.08;;;25.70;63.90;;;24.87;47.92;100086.84;10411439;27;98837;-87
2022/07/29 06:41:50;;;;;;;8.32;3.75;;;26.00;63.20;;;25.04;47.19;100089.34;10403081;27;96545;-89
2022/07/29 06:46:54;;;;;;;4.03;3.03;;;26.20;62.20;;;25.21;46.27;100090.00;10433257;27;97507;-88
2022/07/29 06:51:57;;;;;;;5.88;3.42;;;26.40;61.40;;;25.38;45.97;100091.69;10409125;27;96657;-88
2022/07/29 06:57:00;;;;;;;5.28;3.30;;;26.50;60.80;;;25.58;46.34;100099.88;10419238;27;96694;-87
2022/07/29 07:02:03;;;;;;;8.40;2.95;;;26.70;60.90;;;25.76;45.99;100093.13;10433647;27;96855;-88
2022/07/29 07:07:06;;;;;;;7.75;3.22;;;26.90;60.80;;;25.89;45.73;100098.84;10427489;27;96730;-87
2022/07/29 07:12:09;;;;;;;5.90;3.40;;;27.00;60.70;;;25.94;45.12;100095.31;10439242;27;96601;-87
2022/07/29 07:17:11;;;;;;;5.47;3.40;;;27.10;60.10;;;25.98;45.25;100095.59;10422654;27;98497;-87
2022/07/29 07:22:14;;;;;;;4.15;2.90;;;27.20;59.60;;;26.04;44.23;100087.16;10399385;27;97491;-87
2022/07/29 07:27:17;;;;;;;4.47;3.30;;;27.20;59.20;;;26.18;44.76;100081.16;10420403;27;96979;-86
2022/07/29 07:32:20;;;;;;;7.53;3.70;;;27.40;59.30;;;26.38;44.21;100075.66;10412094;27;96988;-89
2022/07/29 07:37:24;;;;;;;4.55;3.15;;;27.60;58.90;;;26.51;43.39;100085.22;10438152;27;96678;-89
2022/07/29 07:42:27;;;;;;;5.68;2.95;;;27.70;58.40;;;26.65;43.34;100072.66;10422750;27;96675;-88
2022/07/29 07:47:30;;;;;;;6.72;3.35;;;27.80;58.00;;;26.86;43.08;100068.75;10434396;27;96831;-88
2022/07/29 07:52:50;;;;;;;6.43;3.58;;;28.00;57.80;;;27.11;42.86;100067.03;10410989;27;96814;-87
2022/07/29 07:57:54;;;;;;;5.32;3.47;;;28.20;57.80;;;27.28;42.06;100064.75;10438708;27;97754;-87
2022/07/29 08:02:57;;;;;;;5.55;3.10;;;28.40;57.30;;;27.52;41.35;100064.06;10427959;27;97092;-85
2022/07/29 08:08:00;;;;;;;6.57;3.25;;;28.70;56.90;;;27.63;41.19;100060.19;10408450;27;98667;-87
2022/07/29 08:13:06;;;;;;;7.55;3.08;;;28.80;56.20;;;27.85;40.95;100057.03;10414913;27;98307;-87
2022/07/29 08:18:09;;;;;;;3.60;2.92;;;29.00;56.00;;;28.02;40.16;100051.16;10397796;27;98497;-87
2022/07/29 08:23:12;;;;;;;4.90;2.90;;;29.10;55.50;;;28.29;39.32;100054.16;10400439;27;98289;-87
2022/07/29 08:28:15;;;;;;;7.95;3.25;;;29.30;55.10;;;28.47;39.85;100042.53;10435880;27;97569;-87
2022/07/29 08:33:18;;;;;;;4.30;3.22;;;29.40;55.30;;;28.75;39.22;100043.56;10426311;27;96881;-88
2022/07/29 08:38:21;;;;;;;6.22;3.05;;;29.70;55.00;;;29.14;37.95;100045.28;10415665;27;96555;-88
2022/07/29 08:43:25;;;;;;;5.25;3.03;;;29.90;54.40;;;29.28;37.66;100039.91;10403191;27;96853;-86
2022/07/29 08:48:28;;;;;;;5.40;3.03;;;30.20;54.00;;;29.42;37.24;100043.50;10419682;27;97571;-87
2022/07/29 08:53:31;;;;;;;6.82;3.10;;;30.40;53.70;;;29.41;37.08;100036.41;10395899;27;96890;-87
2022/07/29 08:58:34;;;;;;;7.75;3.10;;;30.50;53.10;;;29.55;37.28;100034.56;10436006;27;97667;-87
2022/07/29 09:03:41;;;;;;;10.85;2.92;;;30.60;53.00;;;29.74;36.21;100029.06;10424213;27;96787;-88
2022/07/29 09:08:46;;;;;;;8.55;3.25;;;30.80;52.50;;;29.99;36.19;100025.09;10431300;27;97082;-89
2022/07/29 09:13:49;;;;;;;5.25;2.83;;;31.10;52.30;;;30.09;35.44;100019.41;10439329;27;96629;-88
2022/07/29 09:18:52;;;;;;;4.82;2.92;;;31.20;51.50;;;30.23;35.14;100015.91;10437081;27;97362;-88
2022/07/29 09:24:11;;;;;;;4.10;2.92;;;31.40;51.50;;;30.38;34.94;100012.88;10459168;27;98768;-88
2022/07/29 09:29:18;;;;;;;;;;;31.50;51.20;;;30.43;33.39;100012.78;10441401;27;96778;-88
2022/07/29 09:34:28;;;;;;;6.40;2.90;;;31.60;50.20;;;30.60;34.17;100010.25;10447784;27;96831;-87
2022/07/29 09:39:36;;;;;;;7.03;2.60;;;31.80;50.50;;;30.85;33.61;100005.38;10418103;27;96896;-87
2022/07/29 09:44:49;;;;;;;4.85;2.78;;;32.00;49.70;;;31.08;33.23;100003.50;10419468;27;98521;-89
2022/07/29 09:49:57;;;;;;;4.45;2.53;;;32.20;49.50;;;31.28;32.79;99994.81;10435210;27;96972;-87
2022/07/29 09:55:09;;;;;;;6.57;3.03;;;32.40;49.10;;;31.33;32.20;99986.47;10421706;27;96604;-87
2022/07/29 10:00:22;;;;;;;9.23;2.85;;;32.50;48.30;;;31.25;30.80;99986.38;10420560;27;97005;-87
2022/07/29 10:05:29;;;;;;;4.93;2.65;;;32.60;47.20;;;31.45;31.87;99985.91;10436239;27;97508;-87
2022/07/29 10:10:41;;;;;;;6.78;2.90;;;32.60;47.60;;;31.66;31.23;99978.75;10399460;27;97223;-87
2022/07/29 10:15:45;;;;;;;3.90;2.58;;;32.80;47.70;;;31.75;30.46;99972.53;10415675;27;98277;-88
2022/07/29 10:20:49;;;;;;;3.42;2.47;;;32.90;46.80;;;31.95;30.58;99972.81;10413886;27;96612;-89
2022/07/29 10:25:53;;;;;;;5.53;2.50;;;33.10;46.70;;;32.06;28.92;99973.38;10403495;27;97633;-86
2022/07/29 10:31:05;;;;;;;3.40;2.38;;;33.30;45.50;;;32.28;29.45;99957.94;10429502;27;97090;-87
2022/07/29 10:37:05;;;;;;;3.90;2.22;;;33.40;45.50;;;32.58;29.05;99954.31;10411213;27;96513;-88
2022/07/29 10:42:22;;;;;;;3.40;2.42;;;33.80;45.30;;;32.92;28.16;99941.75;10423497;27;97324;-87
2022/07/29 10:47:36;;;;;;;;;;;34.10;44.70;;;32.95;28.06;99944.69;10435654;27;96650;-90
2022/07/29 10:53:02;;;;;;;5.45;3.03;;;34.10;44.20;;;32.81;27.96;99943.16;10429066;27;96605;-89
2022/07/29 10:58:23;;;;;;;5.72;2.65;;;34.10;44.20;;;32.92;27.79;99931.56;10426388;27;96799;-87
2022/07/29 11:03:47;;;;;;;4.05;2.38;;;34.20;44.30;;;32.76;28.09;99931.22;10439296;27;96715;-88
2022/07/29 11:09:19;;;;;;;6.85;2.15;;;34.10;44.20;;;32.68;28.65;99932.00;10419404;27;96509;-87
2022/07/29 11:14:52;;;;;;;4.25;2.40;;;33.90;44.20;;;32.78;27.25;99919.88;10399537;27;96553;-87
2022/07/29 11:20:44;;;;;;;3.22;2.42;;;34.00;43.70;;;32.56;28.46;99906.25;10418808;27;97425;-87
2022/07/29 11:26:27;;;;;;;3.95;2.20;;;33.80;44.10;;;32.26;28.41;99899.69;10246775;28;96802;-88
2022/07/29 11:31:48;;;;;;;3.53;2.50;;;33.50;44.40;;;32.14;29.34;99906.59;10445589;27;96642;-87
2022/07/29 11:37:12;;;;;;;6.80;2.50;;;33.40;45.10;;;32.41;29.01;99902.03;10424978;27;96544;-87
2022/07/29 11:42:21;;;;;;;2.95;1.98;;;33.40;45.00;;;32.87;27.65;99887.72;10421514;27;97150;-87
2022/07/29 11:47:38;;;;;;;2.75;2.17;;;33.90;44.20;;;33.19;27.32;99880.88;10402698;28;96632;-87
2022/07/29 11:52:46;;;;;;;4.43;2.25;;;34.20;43.60;;;33.54;27.11;99889.09;10401284;27;96609;-88
2022/07/29 11:58:00;;;;;;;2.20;1.77;;;34.50;43.50;;;33.74;26.17;99882.03;10391048;27;97109;-87
2022/07/29 12:03:09;;;;;;;6.88;2.05;;;34.90;43.00;;;33.99;26.49;99872.88;10400008;28;96454;-87
2022/07/29 12:08:19;;;;;;;6.03;2.78;;;35.10;42.70;;;34.17;25.58;99870.81;10428161;27;96707;-86
2022/07/29 12:13:23;;;;;;;4.45;2.22;;;35.30;42.10;;;34.27;25.46;99864.13;10418268;27;96926;-86
2022/07/29 12:18:39;;;;;;;3.20;2.20;;;35.60;41.50;;;34.09;25.17;99863.44;10434010;27;96730;-88
2022/07/29 12:23:54;;;;;;;4.28;2.35;;;35.60;40.90;;;34.15;25.57;99848.31;10420453;27;97350;-87
2022/07/29 12:28:57;;;;;;;6.88;2.00;;;35.60;41.30;;;34.47;25.23;99848.75;10411494;27;97334;-87
2022/07/29 12:34:04;;;;;;;3.75;1.80;;;35.70;40.90;;;34.09;24.98;99835.84;10422250;27;98060;-88
2022/07/29 12:39:08;;;;;;;5.55;2.25;;;35.60;40.70;;;34.12;25.55;99829.66;10405214;27;98544;-87
2022/07/29 12:44:11;;;;;;;4.72;2.60;;;35.50;41.10;;;34.47;24.55;99826.69;10408180;27;97357;-87
2022/07/29 12:49:22;;;;;;;3.22;1.98;;;35.90;40.70;;;34.86;24.78;99828.16;10420018;27;98210;-88
2022/07/29 12:54:25;;;;;;;3.83;2.00;;;36.40;40.60;;;35.05;24.46;99816.63;10409343;27;96860;-85
2022/07/29 12:59:28;;;;;;;2.03;1.77;;;36.80;40.10;;;35.22;23.55;99812.88;10433539;27;96821;-87
2022/07/29 13:04:35;;;;;;;3.00;1.90;;;36.90;39.80;;;35.34;23.53;99799.88;10433732;27;96560;-87
2022/07/29 13:09:41;;;;;;;2.70;1.85;;;36.90;39.60;;;35.62;23.21;99805.56;10432141;27;98517;-89
2022/07/29 13:14:47;;;;;;;6.22;2.10;;;37.00;39.60;;;35.62;22.70;99793.69;10424443;27;96934;-87
2022/07/29 13:19:53;;;;;;;5.65;2.30;;;37.00;39.40;;;35.47;22.44;99797.16;10405877;27;96644;-90
2022/07/29 13:25:06;;;;;;;6.50;2.13;;;36.90;39.00;;;35.11;22.78;99779.38;10431887;27;96722;-88
2022/07/29 13:30:10;;;;;;;4.18;1.88;;;36.60;38.70;;;35.26;22.75;99778.69;10391879;27;97168;-88
2022/07/29 13:35:13;;;;;;;2.47;1.67;;;36.60;38.90;;;35.52;22.86;99781.16;10436468;27;96623;-86
2022/07/29 13:40:16;;;;;;;3.65;2.28;;;36.80;39.00;;;35.72;22.08;99773.91;10407660;27;98539;-87
2022/07/29 13:45:18;;;;;;;3.25;2.35;;;36.90;38.60;;;35.40;22.50;99765.38;10422053;27;96544;-87
2022/07/29 13:50:21;;;;;;;3.55;2.42;;;36.70;38.40;;;34.92;23.38;99768.03;10445401;27;97367;-87
2022/07/29 13:55:25;;;;;;;2.75;1.92;;;36.20;39.10;;;34.73;23.15;99752.78;10413055;27;97248;-86
2022/07/29 14:00:28;;;;;;;3.08;2.33;;;35.80;39.40;;;34.77;23.30;99752.91;10405946;27;97045;-87
2022/07/29 14:05:31;;;;;;;3.25;2.40;;;35.90;39.50;;;34.82;22.89;99753.50;10426147;27;98335;-87
2022/07/29 14:10:34;;;;;;;2.38;1.95;;;36.00;39.20;;;34.94;22.44;99740.91;10423242;27;99121;-86
2022/07/29 14:15:36;;;;;;;3.75;2.08;;;36.20;38.70;;;35.13;22.84;99732.88;10409204;27;97461;-86
2022/07/29 14:20:41;;;;;;;4.63;2.30;;;36.30;38.90;;;35.54;22.48;99725.56;10443926;27;96991;-86
2022/07/29 14:25:44;;;;;;;4.60;2.60;;;36.60;38.80;;;35.87;21.91;99720.69;10421965;27;96688;-86
2022/07/29 14:30:47;;;;;;;4.30;2.50;;;36.90;38.40;;;35.99;22.14;99724.59;10450230;27;96727;-86
2022/07/29 14:35:50;;;;;;;4.10;2.10;;;37.10;38.30;;;36.14;21.00;99721.91;10415152;27;96611;-84
2022/07/29 14:40:53;;;;;;;4.20;2.10;;;37.20;37.90;;;36.05;21.31;99703.84;10431647;27;97218;-87
2022/07/29 14:45:56;;;;;;;6.88;2.22;;;37.30;37.70;;;36.14;21.23;99705.31;10415812;27;97163;-86
2022/07/29 14:51:07;;;;;;;3.05;2.30;;;37.30;37.80;;;36.18;21.21;99706.22;10425977;27;97395;-86
2022/07/29 14:56:10;;;;;;;3.03;2.15;;;37.30;37.80;;;36.38;21.15;99700.84;10444288;27;97599;-86
2022/07/29 15:01:33;;;;;;;2.63;1.95;;;37.40;37.30;;;36.39;21.34;99694.13;10427094;27;97443;-86
2022/07/29 15:06:36;;;;;;;6.20;2.00;;;37.50;37.60;;;36.48;21.35;99678.22;10427743;27;96818;-88
2022/07/29 15:11:39;;;;;;;2.63;2.20;;;37.60;37.60;;;36.64;21.19;99683.78;10440526;27;97644;-87
2022/07/29 15:16:42;;;;;;;8.15;2.10;;;37.70;37.70;;;36.72;20.85;99685.59;10419604;27;98550;-87
2022/07/29 15:21:49;;;;;;;4.60;2.30;;;37.80;37.50;;;36.78;20.39;99686.94;10424351;27;97143;-85
2022/07/29 15:26:53;;;;;;;7.72;2.15;;;37.90;37.20;;;36.68;20.76;99684.69;10421367;27;98413;-86
2022/07/29 15:31:56;;;;;;;5.53;2.20;;;37.80;37.30;;;36.28;20.77;99677.25;10403095;27;98449;-87
2022/07/29 15:37:00;;;;;;;3.35;1.98;;;37.50;37.30;;;35.76;21.78;99682.81;10418924;27;97370;-87
2022/07/29 15:42:03;;;;;;;3.85;2.30;;;36.90;37.70;;;35.30;22.44;99676.63;10420872;27;96796;-86
2022/07/29 15:47:06;;;;;;;2.42;1.95;;;36.40;38.30;;;35.22;22.62;99664.53;10411087;27;98718;-87
2022/07/29 15:52:10;;;;;;;3.67;2.53;;;36.20;38.90;;;35.31;22.58;99659.69;10426113;27;98273;-84
2022/07/29 15:57:14;;;;;;;5.03;2.35;;;36.30;38.60;;;35.56;22.22;99652.19;10412267;27;96683;-87
2022/07/29 16:02:16;;;;;;;4.45;2.53;;;36.40;38.90;;;35.76;22.46;99655.19;10399249;27;96939;-87
2022/07/29 16:07:20;;;;;;;3.15;1.65;;;36.60;38.60;;;35.74;22.35;99647.22;10444253;27;96626;-87
2022/07/29 16:12:25;;;;;;;4.28;2.35;;;36.70;38.50;;;35.59;21.67;99651.53;10424872;27;96510;-86
2022/07/29 16:17:28;;;;;;;3.55;2.58;;;36.70;38.20;;;35.45;22.74;99651.09;10436461;27;96847;-87
2022/07/29 16:22:31;;;;;;;4.05;2.35;;;36.50;38.50;;;35.15;22.71;99647.75;10419900;27;98384;-87
2022/07/29 16:27:34;;;;;;;3.40;2.50;;;36.30;38.70;;;34.85;23.36;99664.50;10420853;27;96390;-87
2022/07/29 16:32:39;;;;;;;4.22;2.05;;;36.00;38.90;;;34.52;23.52;99659.03;10419791;27;96634;-86
2022/07/29 16:37:42;;;;;;;3.97;2.28;;;35.60;39.10;;;34.17;23.65;99660.47;10386110;27;97981;-87
2022/07/29 16:42:45;;;;;;;6.18;2.30;;;35.30;39.40;;;33.86;24.76;99655.38;10413003;27;98073;-87
2022/07/29 16:47:49;;;;;;;2.72;2.13;;;35.00;40.10;;;33.73;25.02;99655.28;10415120;27;96888;-87
2022/07/29 16:52:52;;;;;;;4.35;2.33;;;34.80;40.70;;;33.77;25.57;99649.94;10430342;27;98564;-87
2022/07/29 16:57:56;;;;;;;5.72;2.15;;;34.70;41.00;;;33.79;25.84;99650.41;10410052;27;96602;-86
2022/07/29 17:02:59;;;;;;;3.45;2.15;;;34.80;41.20;;;33.67;25.38;99656.63;10421713;27;98581;-88
2022/07/29 17:08:02;;;;;;;6.43;2.50;;;34.70;41.00;;;33.50;25.58;99645.72;10431678;27;97209;-87
2022/07/29 17:13:05;;;;;;;5.22;2.60;;;34.60;41.00;;;33.31;26.06;99654.41;10404726;27;97548;-87
2022/07/29 17:18:11;;;;;;;3.83;2.25;;;34.40;41.40;;;33.04;26.28;99652.91;10439178;27;96604;-88
2022/07/29 17:23:14;;;;;;;7.40;2.60;;;34.10;41.70;;;32.76;27.03;99655.28;10407506;27;96627;-87
2022/07/29 17:28:17;;;;;;;7.47;2.95;;;33.80;42.20;;;32.45;27.58;99661.84;10415684;27;97999;-88
2022/07/29 17:33:20;;;;;;;5.72;3.40;;;33.50;42.60;;;32.13;28.60;99654.88;10420668;27;97464;-89
2022/07/29 17:38:23;;;;;;;3.42;2.50;;;33.20;43.70;;;31.80;29.13;99656.50;10392099;27;97221;-88
2022/07/29 17:43:25;;;;;;;3.78;2.40;;;32.80;44.00;;;31.48;28.88;99655.78;10419165;27;96884;-87
2022/07/29 17:48:29;;;;;;;5.75;2.47;;;32.50;43.90;;;31.15;29.13;99661.63;10445372;27;99010;-87
2022/07/29 17:53:31;;;;;;;6.05;2.60;;;32.20;44.00;;;30.91;29.60;99661.22;10414935;27;98096;-87
2022/07/29 17:58:34;;;;;;;3.70;2.50;;;32.00;44.20;;;30.66;29.78;99662.69;10429469;27;98251;-87
2022/07/29 18:03:37;;;;;;;6.72;2.45;;;31.80;44.40;;;30.43;29.96;99672.88;10422859;27;97576;-87
2022/07/29 18:08:40;;;;;;;3.97;2.30;;;31.50;44.60;;;30.21;30.58;99681.88;10416968;27;96631;-87
2022/07/29 18:13:43;;;;;;;4.22;2.47;;;31.30;44.90;;;29.98;31.15;99694.72;10429470;27;96558;-88
2022/07/29 18:18:46;;;;;;;7.47;3.72;;;31.10;45.60;;;29.75;31.82;99710.31;10420842;27;98244;-88
2022/07/29 18:23:51;;;;;;;3.72;2.65;;;30.80;46.10;;;29.56;32.83;99713.16;10416740;27;97195;-87
2022/07/29 18:28:54;;;;;;;5.05;2.42;;;30.60;46.90;;;29.43;33.28;99718.59;10400375;27;96530;-90
2022/07/29 18:33:57;;;;;;;3.65;2.35;;;30.40;47.50;;;29.27;34.54;99726.31;10443270;27;96522;-87
2022/07/29 18:39:02;;;;;;;3.85;2.30;;;30.30;48.30;;;29.12;34.58;99741.09;10409664;27;96624;-90
2022/07/29 18:44:04;;;;;;;3.75;2.20;;;30.10;48.80;;;28.94;35.01;99750.19;10433528;27;98443;-89
2022/07/29 18:49:08;;;;;;;4.13;2.55;;;29.90;49.20;;;28.74;36.03;99752.13;10436144;27;98579;-89
2022/07/29 18:54:11;;;;;;;3.78;2.85;;;29.70;49.70;;;28.60;36.03;99755.91;10431777;27;97379;-86
2022/07/29 18:59:15;;;;;;;3.42;2.28;;;29.60;50.00;;;28.46;36.54;99755.84;10417479;27;96794;-89
2022/07/29 19:04:18;;;;;;;3.28;2.58;;;29.40;50.20;;;28.35;36.73;99771.59;10427001;27;96690;-87
2022/07/29 19:09:21;;;;;;;4.50;2.70;;;29.40;50.40;;;28.25;36.89;99772.53;10408839;27;97124;-88
2022/07/29 19:14:24;;;;;;;4.65;2.47;;;29.30;50.60;;;28.19;37.34;99778.38;10426053;27;97364;-89
2022/07/29 19:19:27;;;;;;;4.70;2.70;;;29.20;50.60;;;28.11;36.89;99777.09;10417154;27;96597;-88
2022/07/29 19:24:30;;;;;;;3.40;2.30;;;29.20;50.70;;;28.06;37.54;99782.63;10417366;27;97588;-88
2022/07/29 19:29:34;;;;;;;4.03;2.58;;;29.10;50.80;;;27.94;37.84;99776.78;10422708;27;97147;-88
2022/07/29 19:34:37;;;;;;;3.15;2.67;;;29.00;51.10;;;27.78;38.11;99781.63;10426716;27;98560;-86
2022/07/29 19:39:39;;;;;;;2.65;2.20;;;28.90;51.40;;;27.72;38.18;99780.06;10409375;27;97757;-88
2022/07/29 19:44:42;;;;;;;3.88;2.80;;;28.70;51.50;;;27.58;38.44;99776.38;10444525;27;98270;-89
2022/07/29 19:49:45;;;;;;;3.08;2.55;;;28.70;51.90;;;27.46;38.65;99774.03;10436826;27;96774;-87
2022/07/29 19:54:48;;;;;;;4.70;2.25;;;28.50;52.10;;;27.33;39.20;99775.53;10420926;27;97725;-88
2022/07/29 19:59:51;;;;;;;5.82;2.80;;;28.40;52.40;;;27.25;39.47;99773.47;10436479;27;98268;-89
2022/07/29 20:04:54;;;;;;;3.20;2.90;;;28.30;52.70;;;27.14;39.34;99775.47;10412733;27;98446;-88
2022/07/29 20:09:57;;;;;;;2.90;2.25;;;28.20;52.80;;;27.05;39.62;99779.91;10428650;27;97458;-89
2022/07/29 20:15:00;;;;;;;3.17;2.45;;;28.10;53.00;;;27.03;39.98;99779.34;10421483;27;97331;-88
2022/07/29 20:20:04;;;;;;;3.90;2.75;;;28.10;53.20;;;26.94;40.14;99776.44;10433962;27;97119;-87
2022/07/29 20:25:08;;;;;;;4.78;2.58;;;28.10;53.40;;;26.90;40.50;99778.09;10419466;27;96909;-87
2022/07/29 20:30:12;;;;;;;3.30;2.63;;;28.00;53.60;;;26.90;41.01;99791.75;10439405;27;98459;-87
2022/07/29 20:35:15;;;;;;;3.22;2.58;;;28.00;53.70;;;26.88;41.27;99798.59;10440243;27;98374;-87
2022/07/29 20:40:21;;;;;;;5.72;3.05;;;28.00;53.90;;;26.80;41.54;99812.81;10417117;27;98027;-87
2022/07/29 20:45:25;;;;;;;3.58;2.80;;;28.00;54.30;;;26.67;42.09;99812.34;10446316;27;96723;-88
2022/07/29 20:50:28;;;;;;;5.75;3.13;;;27.80;54.70;;;26.65;42.44;99824.66;10424000;27;97170;-88
2022/07/29 20:55:31;;;;;;;5.20;2.75;;;27.80;55.00;;;26.61;42.51;99827.13;10447675;27;96511;-89
2022/07/29 21:00:34;;;;;;;4.53;2.22;;;27.70;55.20;;;26.54;42.87;99842.16;10446741;27;96671;-88
2022/07/29 21:05:37;;;;;;;3.95;2.75;;;27.70;55.60;;;26.45;43.53;99827.50;10450313;27;96747;-89
2022/07/29 21:10:44;;;;;;;3.40;2.80;;;27.60;55.90;;;26.32;43.96;99832.44;10421018;27;97920;-90